Time;durP1;ratioP1;P1;durP2;ratioP2;P2;SDS_P1;SDS_P2;PMS_P1;PMS_P2;Temp;Humidity;BMP_temperature;BMP_pressure;BME280_temperature;BME280_humidity;BME280_pressure;Samples;Min_cycle;Max_cycle;Signal;HPM_P1;HPM_P2
2023/01/22 00:01:39;;;;;;;;;;;2.10;99.90;;;;;;5066916;28;1056;-77
2023/01/22 00:04:09;;;;;;;;;;;2.20;99.90;;;;;;5064941;28;1017;-75
2023/01/22 00:06:36;;;;;;;;;;;1.90;99.90;;;;;;5064126;28;1382;-76
2023/01/22 00:09:04;;;;;;;;;;;2.10;99.90;;;;;;5066561;28;1989;-76
2023/01/22 00:11:32;;;;;;;;;;;2.10;99.90;;;;;;5062278;28;1902;-75
2023/01/22 00:13:59;;;;;;;;;;;2.00;99.90;;;;;;5060938;28;1504;-76
2023/01/22 00:16:27;;;;;;;;;;;2.00;99.90;;;;;;5070488;28;1323;-74
2023/01/22 00:18:55;;;;;;;;;;;2.00;99.90;;;;;;5065946;28;1084;-75
2023/01/22 00:21:25;;;;;;;;;;;2.00;99.90;;;;;;5067277;28;1678;-75
2023/01/22 00:23:52;;;;;;;;;;;2.00;99.90;;;;;;5062343;28;1188;-76
2023/01/22 00:26:20;;;;;;;;;;;2.00;99.90;;;;;;5063921;28;1260;-75
2023/01/22 00:28:48;;;;;;;;;;;2.00;99.90;;;;;;5065571;28;1087;-75
2023/01/22 00:31:16;;;;;;;;;;;2.20;99.90;;;;;;5066455;28;1997;-75
2023/01/22 00:33:44;;;;;;;;;;;2.00;99.90;;;;;;5065977;28;1681;-76
2023/01/22 00:36:14;;;;;;;;;;;2.10;99.90;;;;;;5066793;28;1341;-75
2023/01/22 00:38:43;;;;;;;;;;;2.10;99.90;;;;;;5062998;28;966;-75
2023/01/22 00:41:12;;;;;;;;;;;2.00;99.90;;;;;;5063884;28;1243;-75
2023/01/22 00:43:39;;;;;;;;;;;1.90;99.90;;;;;;5059743;28;2146;-74
2023/01/22 00:46:09;;;;;;;;;;;2.20;99.90;;;;;;5066995;28;1351;-75
2023/01/22 00:48:37;;;;;;;;;;;1.90;99.90;;;;;;5065043;28;1313;-74
2023/01/22 00:51:07;;;;;;;;;;;2.10;99.90;;;;;;5062915;28;1910;-75
2023/01/22 00:53:35;;;;;;;;;;;2.10;99.90;;;;;;5060832;28;1040;-75
2023/01/22 00:56:04;;;;;;;;;;;2.20;99.90;;;;;;5063953;28;1758;-77
2023/01/22 00:58:32;;;;;;;;;;;2.20;99.90;;;;;;5079074;28;1185;-76
2023/01/22 01:01:00;;;;;;;;;;;2.30;99.90;;;;;;5067988;28;1097;-75
2023/01/22 01:03:30;;;;;;;;;;;2.10;99.90;;;;;;5064832;28;977;-76
2023/01/22 01:05:58;;;;;;;;;;;2.00;99.90;;;;;;5061462;28;1257;-75
2023/01/22 01:08:27;;;;;;;;;;;2.00;99.90;;;;;;5061940;28;1701;-75
2023/01/22 01:10:55;;;;;;;;;;;2.00;99.90;;;;;;5065947;28;1914;-75
2023/01/22 01:13:24;;;;;;;;;;;2.00;99.90;;;;;;5065058;28;1936;-75
2023/01/22 01:15:58;;;;;;;;;;;2.00;99.90;;;;;;5065802;28;1262;-77
2023/01/22 01:18:25;;;;;;;;;;;2.00;99.90;;;;;;5063122;28;1056;-74
2023/01/22 01:20:53;;;;;;;;;;;1.90;99.90;;;;;;5065905;28;1067;-75
2023/01/22 01:23:21;;;;;;;;;;;2.00;99.90;;;;;;5061294;28;1010;-75
2023/01/22 01:25:49;;;;;;;;;;;2.00;99.90;;;;;;5063834;28;1266;-75
2023/01/22 01:28:16;;;;;;;;;;;2.30;99.90;;;;;;5064718;28;1113;-75
2023/01/22 01:30:45;;;;;;;;;;;2.10;99.90;;;;;;5066260;28;1906;-74
2023/01/22 01:33:13;;;;;;;;;;;2.20;99.90;;;;;;5060390;28;1301;-75
2023/01/22 01:35:41;;;;;;;;;;;2.00;99.90;;;;;;5058324;28;1272;-75
2023/01/22 01:38:08;;;;;;;;;;;2.10;99.90;;;;;;5062339;28;998;-75
2023/01/22 01:40:41;;;;;;;;;;;2.00;99.90;;;;;;5058368;28;1018;-75
2023/01/22 01:43:13;;;;;;;;;;;2.10;99.90;;;;;;5062888;28;1293;-75
2023/01/22 01:45:41;;;;;;;;;;;2.00;99.90;;;;;;5061893;28;1367;-74
2023/01/22 01:48:23;;;;;;;;;;;2.20;99.90;;;;;;5061962;28;989;-74
2023/01/22 01:50:53;;;;;;;;;;;2.00;99.90;;;;;;5066489;28;1985;-73
2023/01/22 01:53:21;;;;;;;;;;;2.10;99.90;;;;;;5063825;28;1089;-74
2023/01/22 01:55:49;;;;;;;;;;;2.00;99.90;;;;;;5063245;28;1261;-73
2023/01/22 01:58:20;;;;;;;;;;;2.10;99.90;;;;;;5064076;28;1162;-72
2023/01/22 02:00:50;;;;;;;;;;;2.00;99.90;;;;;;5064255;28;1088;-73
2023/01/22 02:03:19;;;;;;;;;;;2.00;99.90;;;;;;5060586;28;1092;-73
2023/01/22 02:05:47;;;;;;;;;;;2.00;99.90;;;;;;5063573;28;1287;-74
2023/01/22 02:08:15;;;;;;;;;;;2.30;99.90;;;;;;5064839;28;1290;-73
2023/01/22 02:10:43;;;;;;;;;;;1.90;99.90;;;;;;5063114;28;981;-74
2023/01/22 02:13:14;;;;;;;;;;;2.00;99.90;;;;;;5063156;28;1906;-77
2023/01/22 02:15:42;;;;;;;;;;;2.40;99.90;;;;;;5061859;28;2079;-75
2023/01/22 02:18:11;;;;;;;;;;;2.20;99.90;;;;;;5058375;28;1939;-73
2023/01/22 02:20:40;;;;;;;;;;;2.10;99.90;;;;;;5060349;28;2078;-74
2023/01/22 02:23:07;;;;;;;;;;;2.10;99.90;;;;;;5057879;28;2169;-74
2023/01/22 02:25:35;;;;;;;;;;;2.20;99.90;;;;;;5057699;28;2075;-75
2023/01/22 02:28:03;;;;;;;;;;;2.10;99.90;;;;;;5056004;28;2245;-74
2023/01/22 02:30:30;;;;;;;;;;;2.10;99.90;;;;;;5060454;28;2154;-75
2023/01/22 02:32:58;;;;;;;;;;;2.10;99.90;;;;;;5062759;28;1910;-75
2023/01/22 02:35:26;;;;;;;;;;;2.10;99.90;;;;;;5062223;28;1333;-76
2023/01/22 02:37:55;;;;;;;;;;;2.10;99.90;;;;;;5058928;28;2083;-76
2023/01/22 02:40:22;;;;;;;;;;;2.10;99.90;;;;;;5061882;28;2281;-76
2023/01/22 02:42:50;;;;;;;;;;;2.20;99.90;;;;;;5062052;28;1056;-75
2023/01/22 02:45:17;;;;;;;;;;;2.20;99.90;;;;;;5061535;28;1300;-76
2023/01/22 02:47:45;;;;;;;;;;;2.10;99.90;;;;;;5067366;28;1089;-76
2023/01/22 02:50:13;;;;;;;;;;;2.10;99.90;;;;;;5065335;28;2078;-75
2023/01/22 02:52:40;;;;;;;;;;;2.10;99.90;;;;;;5068322;28;1914;-76
2023/01/22 02:55:09;;;;;;;;;;;2.00;99.90;;;;;;5072914;28;1283;-75
2023/01/22 02:57:37;;;;;;;;;;;2.00;99.90;;;;;;5082174;28;1136;-75
2023/01/22 03:00:05;;;;;;;;;;;2.10;99.90;;;;;;5079495;28;1264;-75
2023/01/22 03:02:32;;;;;;;;;;;2.30;99.90;;;;;;5080988;28;1084;-74
2023/01/22 03:05:03;;;;;;;;;;;2.10;99.90;;;;;;5075175;28;2099;-74
2023/01/22 03:07:41;;;;;;;;;;;2.20;99.90;;;;;;5079835;28;1053;-75
2023/01/22 03:10:12;;;;;;;;;;;2.20;99.90;;;;;;5080765;28;1321;-74
2023/01/22 03:21:14;;;;;;;;;;;2.20;99.90;;;;;;5080458;28;2133;-74
2023/01/22 03:23:42;;;;;;;;;;;2.10;99.90;;;;;;5076563;28;1081;-75
2023/01/22 03:26:11;;;;;;;;;;;2.00;99.90;;;;;;5079259;28;1269;-75
2023/01/22 03:28:39;;;;;;;;;;;2.10;99.90;;;;;;5068749;28;1092;-75
2023/01/22 03:31:06;;;;;;;;;;;2.10;99.90;;;;;;5065475;28;1175;-75
2023/01/22 03:33:34;;;;;;;;;;;2.30;99.90;;;;;;5059722;28;1989;-75
2023/01/22 03:36:03;;;;;;;;;;;2.20;99.90;;;;;;5054930;28;1292;-74
2023/01/22 03:38:31;;;;;;;;;;;2.20;99.90;;;;;;5065486;28;1098;-75
2023/01/22 03:41:02;;;;;;;;;;;2.30;99.90;;;;;;5063702;28;1012;-75
2023/01/22 03:43:32;;;;;;;;;;;2.30;99.90;;;;;;5063618;28;1052;-75
2023/01/22 03:46:01;;;;;;;;;;;2.40;99.90;;;;;;5062291;28;1240;-74
2023/01/22 03:48:29;;;;;;;;;;;2.20;99.90;;;;;;5065691;28;1114;-74
2023/01/22 03:50:57;;;;;;;;;;;2.30;99.90;;;;;;5061799;28;1025;-74
2023/01/22 03:53:24;;;;;;;;;;;2.20;99.90;;;;;;5062634;28;1902;-74
2023/01/22 03:55:58;;;;;;;;;;;2.30;99.90;;;;;;5061588;28;1272;-74
2023/01/22 03:58:26;;;;;;;;;;;2.20;99.90;;;;;;5064831;28;1567;-75
2023/01/22 04:00:57;;;;;;;;;;;2.40;99.90;;;;;;5065847;28;1114;-74
2023/01/22 04:03:25;;;;;;;;;;;2.30;99.90;;;;;;5064377;28;1096;-75
2023/01/22 04:05:53;;;;;;;;;;;2.20;99.90;;;;;;5064652;28;1259;-75
2023/01/22 04:08:21;;;;;;;;;;;2.10;99.90;;;;;;5065594;28;1049;-75
2023/01/22 04:10:49;;;;;;;;;;;2.20;99.90;;;;;;5064909;28;1036;-75
2023/01/22 04:13:16;;;;;;;;;;;2.20;99.90;;;;;;5066858;28;2003;-75
2023/01/22 04:15:44;;;;;;;;;;;2.10;99.90;;;;;;5059828;28;1398;-75
2023/01/22 04:18:13;;;;;;;;;;;2.20;99.90;;;;;;5067938;28;1005;-76
2023/01/22 04:20:41;;;;;;;;;;;2.10;99.90;;;;;;5065942;28;1052;-75
2023/01/22 04:23:09;;;;;;;;;;;2.10;99.90;;;;;;5066410;28;1055;-74
2023/01/22 04:25:37;;;;;;;;;;;2.00;99.90;;;;;;5063979;28;1299;-75
2023/01/22 04:28:05;;;;;;;;;;;2.30;99.90;;;;;;5061261;28;1172;-75
2023/01/22 04:30:33;;;;;;;;;;;2.40;99.90;;;;;;5063726;28;1502;-74
2023/01/22 04:33:00;;;;;;;;;;;2.30;99.90;;;;;;5064865;28;1906;-75
2023/01/22 04:35:29;;;;;;;;;;;2.30;99.90;;;;;;5064988;28;1397;-75
2023/01/22 04:37:58;;;;;;;;;;;2.20;99.90;;;;;;5065483;28;1088;-75
2023/01/22 04:40:25;;;;;;;;;;;2.40;99.90;;;;;;5062560;28;1028;-75
2023/01/22 04:42:53;;;;;;;;;;;2.10;99.90;;;;;;5064081;28;1000;-76
2023/01/22 04:45:21;;;;;;;;;;;2.20;99.90;;;;;;5061814;28;1268;-75
2023/01/22 04:47:49;;;;;;;;;;;2.20;99.90;;;;;;5064657;28;1001;-73
2023/01/22 04:50:20;;;;;;;;;;;2.20;99.90;;;;;;5063752;28;1101;-74
2023/01/22 04:52:49;;;;;;;;;;;2.20;99.90;;;;;;5063980;28;1914;-74
2023/01/22 04:55:17;;;;;;;;;;;2.20;99.90;;;;;;5062648;28;1365;-74
2023/01/22 04:57:45;;;;;;;;;;;2.30;99.90;;;;;;5063141;28;1090;-74
2023/01/22 05:00:13;;;;;;;;;;;2.30;99.90;;;;;;5060830;28;1105;-74
2023/01/22 05:02:40;;;;;;;;;;;2.20;99.90;;;;;;5071216;28;989;-74
2023/01/22 05:05:09;;;;;;;;;;;2.50;99.90;;;;;;5064695;28;1373;-74
2023/01/22 05:07:36;;;;;;;;;;;2.30;99.90;;;;;;5066333;28;748;-75
2023/01/22 05:10:06;;;;;;;;;;;2.20;99.90;;;;;;5065246;28;1121;-73
2023/01/22 05:12:34;;;;;;;;;;;2.30;99.90;;;;;;5059664;28;1910;-73
2023/01/22 05:15:01;;;;;;;;;;;2.20;99.90;;;;;;5068377;28;1260;-73
2023/01/22 05:17:33;;;;;;;;;;;2.10;99.90;;;;;;5057705;28;1074;-73
2023/01/22 05:20:01;;;;;;;;;;;2.20;99.90;;;;;;5065398;28;1005;-73
2023/01/22 05:22:29;;;;;;;;;;;2.20;99.90;;;;;;5064371;28;1320;-72
2023/01/22 05:24:56;;;;;;;;;;;2.30;99.90;;;;;;5063159;28;1354;-74
2023/01/22 05:27:25;;;;;;;;;;;2.20;99.90;;;;;;5063540;28;2106;-74
2023/01/22 05:29:53;;;;;;;;;;;2.30;99.90;;;;;;5060135;28;2075;-73
2023/01/22 05:32:20;;;;;;;;;;;2.20;99.90;;;;;;5063721;28;1092;-73
2023/01/22 05:34:48;;;;;;;;;;;2.40;99.90;;;;;;5064023;28;1942;-73
2023/01/22 05:37:15;;;;;;;;;;;2.30;99.90;;;;;;5062458;28;1087;-73
2023/01/22 05:39:43;;;;;;;;;;;2.40;99.90;;;;;;5064648;28;1105;-75
2023/01/22 05:42:13;;;;;;;;;;;2.30;99.90;;;;;;5061403;28;1747;-75
2023/01/22 05:44:42;;;;;;;;;;;2.40;99.90;;;;;;5061654;28;1445;-73
2023/01/22 05:47:12;;;;;;;;;;;2.40;99.90;;;;;;5066753;28;1124;-74
2023/01/22 05:49:39;;;;;;;;;;;2.40;99.90;;;;;;5060575;28;2092;-75
2023/01/22 05:52:09;;;;;;;;;;;2.60;99.90;;;;;;5069405;28;1968;-75
2023/01/22 05:54:38;;;;;;;;;;;2.50;99.90;;;;;;5063631;28;2082;-74
2023/01/22 05:57:05;;;;;;;;;;;2.50;99.90;;;;;;5057472;28;1977;-75
2023/01/22 05:59:33;;;;;;;;;;;2.60;99.90;;;;;;5061750;28;1604;-76
2023/01/22 06:02:02;;;;;;;;;;;2.60;99.90;;;;;;5057806;28;1665;-73
2023/01/22 06:04:30;;;;;;;;;;;2.60;99.90;;;;;;5061098;28;1787;-74
2023/01/22 06:06:58;;;;;;;;;;;2.50;99.90;;;;;;5064092;28;1534;-74
2023/01/22 06:09:25;;;;;;;;;;;2.60;99.90;;;;;;5062865;28;1077;-73
2023/01/22 06:11:54;;;;;;;;;;;2.60;99.90;;;;;;5064121;28;1656;-74
2023/01/22 06:14:21;;;;;;;;;;;2.60;99.90;;;;;;5059411;28;1910;-74
2023/01/22 06:16:49;;;;;;;;;;;2.60;99.90;;;;;;5058922;28;1680;-73
2023/01/22 06:19:18;;;;;;;;;;;2.50;99.90;;;;;;5062404;28;1032;-74
2023/01/22 06:21:46;;;;;;;;;;;2.60;99.90;;;;;;5064420;28;1010;-74
2023/01/22 06:24:13;;;;;;;;;;;2.60;99.90;;;;;;5062964;28;1709;-74
2023/01/22 06:26:41;;;;;;;;;;;2.60;99.90;;;;;;5069402;28;1550;-73
2023/01/22 06:29:08;;;;;;;;;;;2.50;99.90;;;;;;5066731;28;1654;-73
2023/01/22 06:31:36;;;;;;;;;;;2.60;99.90;;;;;;5066609;28;1783;-73
2023/01/22 06:34:04;;;;;;;;;;;2.60;99.90;;;;;;5064726;28;1985;-73
2023/01/22 06:36:33;;;;;;;;;;;2.60;99.90;;;;;;5068167;28;1394;-74
2023/01/22 06:39:01;;;;;;;;;;;2.70;99.90;;;;;;5064607;28;1099;-74
2023/01/22 06:41:28;;;;;;;;;;;2.70;99.90;;;;;;5067175;28;1606;-75
2023/01/22 06:44:00;;;;;;;;;;;2.70;99.90;;;;;;5068276;28;1121;-74
2023/01/22 06:46:28;;;;;;;;;;;2.60;99.90;;;;;;5065099;28;1437;-73
2023/01/22 06:48:57;;;;;;;;;;;2.60;99.90;;;;;;5064982;28;1048;-73
2023/01/22 06:51:25;;;;;;;;;;;2.70;99.90;;;;;;5068347;28;1033;-74
2023/01/22 06:53:54;;;;;;;;;;;2.60;99.90;;;;;;5061728;28;1992;-74
2023/01/22 06:56:22;;;;;;;;;;;2.60;99.90;;;;;;5067292;28;1394;-73
2023/01/22 06:58:49;;;;;;;;;;;2.60;99.90;;;;;;5065386;28;1290;-73
2023/01/22 07:01:17;;;;;;;;;;;2.70;99.90;;;;;;5065478;28;1076;-73
2023/01/22 07:03:45;;;;;;;;;;;2.80;99.90;;;;;;5064830;28;1125;-73
2023/01/22 07:06:13;;;;;;;;;;;2.90;99.90;;;;;;5065084;28;1403;-74
2023/01/22 07:08:41;;;;;;;;;;;2.70;99.90;;;;;;5067828;28;1173;-73
2023/01/22 07:11:10;;;;;;;;;;;2.80;99.90;;;;;;5065193;28;1533;-73
2023/01/22 07:13:39;;;;;;;;;;;2.80;99.90;;;;;;5061208;28;1076;-73
2023/01/22 07:16:07;;;;;;;;;;;2.80;99.90;;;;;;5066342;28;1300;-73
2023/01/22 07:18:35;;;;;;;;;;;2.80;99.90;;;;;;5064243;28;1057;-73
2023/01/22 07:21:04;;;;;;;;;;;2.80;99.90;;;;;;5063556;28;1132;-73
2023/01/22 07:23:32;;;;;;;;;;;2.90;99.90;;;;;;5063731;28;1404;-73
2023/01/22 07:25:59;;;;;;;;;;;2.90;99.90;;;;;;5066677;28;1374;-72
2023/01/22 07:28:28;;;;;;;;;;;2.80;99.90;;;;;;5064557;28;1156;-73
2023/01/22 07:30:56;;;;;;;;;;;2.70;99.90;;;;;;5066897;28;1650;-74
2023/01/22 07:33:24;;;;;;;;;;;2.80;99.90;;;;;;5068489;28;1013;-73
2023/01/22 07:35:56;;;;;;;;;;;2.90;99.90;;;;;;5066387;28;2005;-74
2023/01/22 07:38:26;;;;;;;;;;;3.00;99.90;;;;;;5063860;28;1036;-74
2023/01/22 07:40:54;;;;;;;;;;;2.90;99.90;;;;;;5065121;28;1680;-75
2023/01/22 07:43:22;;;;;;;;;;;2.80;99.90;;;;;;5070734;28;1646;-75
2023/01/22 07:45:51;;;;;;;;;;;3.00;99.90;;;;;;5067241;28;1259;-74
2023/01/22 07:48:19;;;;;;;;;;;3.00;99.90;;;;;;5067153;28;1675;-74
2023/01/22 07:50:46;;;;;;;;;;;2.90;99.90;;;;;;5064458;28;1623;-73
2023/01/22 07:53:14;;;;;;;;;;;3.00;99.90;;;;;;5066409;28;1004;-73
2023/01/22 07:55:42;;;;;;;;;;;2.90;99.90;;;;;;5063617;28;1914;-74
2023/01/22 07:58:10;;;;;;;;;;;3.00;99.90;;;;;;5064688;28;1147;-74
2023/01/22 08:00:38;;;;;;;;;;;3.00;99.90;;;;;;5060459;28;1075;-73
2023/01/22 08:03:09;;;;;;;;;;;3.10;99.90;;;;;;5065253;28;1063;-73
2023/01/22 08:05:38;;;;;;;;;;;3.40;99.90;;;;;;5068142;28;1640;-74
2023/01/22 08:08:07;;;;;;;;;;;3.10;99.90;;;;;;5067995;28;1085;-74
2023/01/22 08:10:35;;;;;;;;;;;3.10;99.90;;;;;;5074206;28;1673;-73
2023/01/22 08:13:03;;;;;;;;;;;2.80;99.90;;;;;;5065037;28;1033;-73
2023/01/22 08:15:31;;;;;;;;;;;3.10;99.90;;;;;;5060829;28;1910;-73
2023/01/22 08:17:59;;;;;;;;;;;2.70;99.90;;;;;;5064002;28;1526;-73
2023/01/22 08:20:28;;;;;;;;;;;3.00;99.90;;;;;;5062058;28;1053;-74
2023/01/22 08:22:56;;;;;;;;;;;3.20;99.90;;;;;;5062083;28;1740;-73
2023/01/22 08:25:24;;;;;;;;;;;3.10;99.90;;;;;;5062416;28;1531;-73
2023/01/22 08:27:52;;;;;;;;;;;3.10;99.90;;;;;;5063780;28;1663;-74
2023/01/22 08:30:20;;;;;;;;;;;3.10;99.90;;;;;;5066396;28;1686;-72
2023/01/22 08:32:49;;;;;;;;;;;3.00;99.90;;;;;;5056411;28;1452;-73
2023/01/22 08:35:17;;;;;;;;;;;3.10;99.90;;;;;;5063765;28;1921;-74
2023/01/22 08:37:46;;;;;;;;;;;3.10;99.90;;;;;;5064190;28;1388;-73
2023/01/22 08:40:14;;;;;;;;;;;3.30;99.90;;;;;;5065438;28;1085;-74
2023/01/22 08:42:43;;;;;;;;;;;3.20;99.90;;;;;;5065005;28;1506;-74
2023/01/22 08:45:11;;;;;;;;;;;3.20;99.90;;;;;;5066508;28;1602;-73
2023/01/22 08:47:39;;;;;;;;;;;3.10;99.90;;;;;;5068511;28;1022;-74
2023/01/22 08:50:07;;;;;;;;;;;3.20;99.90;;;;;;5065854;28;1680;-73
2023/01/22 08:52:35;;;;;;;;;;;3.10;99.90;;;;;;5066656;28;1052;-74
2023/01/22 08:55:08;;;;;;;;;;;3.30;99.90;;;;;;5065068;28;1991;-74
2023/01/22 08:57:36;;;;;;;;;;;3.20;99.90;;;;;;5061235;28;1431;-73
2023/01/22 09:00:05;;;;;;;;;;;3.10;99.90;;;;;;5064043;28;1133;-73
2023/01/22 09:02:32;;;;;;;;;;;3.30;99.90;;;;;;5062267;28;1060;-73
2023/01/22 09:05:01;;;;;;;;;;;3.30;99.90;;;;;;5067499;28;1300;-73
2023/01/22 09:07:29;;;;;;;;;;;3.30;99.90;;;;;;5065555;28;1365;-73
2023/01/22 09:09:57;;;;;;;;;;;3.20;99.90;;;;;;5061235;28;1154;-74
2023/01/22 09:12:26;;;;;;;;;;;3.10;99.90;;;;;;5064581;28;1001;-75
2023/01/22 09:14:54;;;;;;;;;;;3.20;99.90;;;;;;5067227;28;1914;-75
2023/01/22 09:17:22;;;;;;;;;;;3.20;99.90;;;;;;5067054;28;1121;-76
2023/01/22 09:19:50;;;;;;;;;;;3.20;99.90;;;;;;5062662;28;1724;-76
2023/01/22 09:22:19;;;;;;;;;;;3.40;99.90;;;;;;5058267;28;1659;-75
2023/01/22 09:24:48;;;;;;;;;;;3.20;99.90;;;;;;5061089;28;1523;-74
2023/01/22 09:27:15;;;;;;;;;;;3.20;99.90;;;;;;5062219;28;1281;-74
2023/01/22 09:29:45;;;;;;;;;;;3.30;99.90;;;;;;5060342;28;1147;-74
2023/01/22 09:32:13;;;;;;;;;;;3.40;99.90;;;;;;5062825;28;1340;-74
2023/01/22 09:34:40;;;;;;;;;;;3.30;99.90;;;;;;5056142;28;2632;-74
2023/01/22 09:37:08;;;;;;;;;;;3.20;99.90;;;;;;5057447;28;1914;-73
2023/01/22 09:39:37;;;;;;;;;;;3.40;99.90;;;;;;5060254;28;1183;-74
2023/01/22 09:42:06;;;;;;;;;;;3.30;99.90;;;;;;5060002;28;1162;-74
2023/01/22 09:44:36;;;;;;;;;;;3.30;99.90;;;;;;5060727;28;1494;-74
2023/01/22 09:47:06;;;;;;;;;;;3.30;99.90;;;;;;5056939;28;1621;-74
2023/01/22 09:49:36;;;;;;;;;;;3.20;99.90;;;;;;5060351;28;1080;-73
2023/01/22 09:52:05;;;;;;;;;;;3.40;99.90;;;;;;5059822;28;1732;-74
2023/01/22 09:54:33;;;;;;;;;;;3.30;99.90;;;;;;5056836;28;1345;-74
2023/01/22 09:57:02;;;;;;;;;;;3.50;99.90;;;;;;5062806;28;1906;-74
2023/01/22 09:59:32;;;;;;;;;;;3.40;99.90;;;;;;5066379;28;1369;-74
2023/01/22 10:02:03;;;;;;;;;;;3.40;99.90;;;;;;5067223;28;1074;-74
2023/01/22 10:04:35;;;;;;;;;;;3.40;99.90;;;;;;5067231;28;1327;-74
2023/01/22 10:07:05;;;;;;;;;;;3.40;99.90;;;;;;5065190;28;1160;-74
2023/01/22 10:09:33;;;;;;;;;;;3.60;99.90;;;;;;5068212;28;1087;-74
2023/01/22 10:12:08;;;;;;;;;;;3.60;99.90;;;;;;5061731;28;1238;-74
2023/01/22 10:14:36;;;;;;;;;;;3.60;99.90;;;;;;5062459;28;1389;-74
2023/01/22 10:17:16;;;;;;;;;;;3.70;99.90;;;;;;5064893;28;1902;-74
2023/01/22 10:19:47;;;;;;;;;;;3.80;99.90;;;;;;5064493;28;1113;-74
2023/01/22 10:22:18;;;;;;;;;;;4.00;99.90;;;;;;5062752;28;1634;-74
2023/01/22 10:24:46;;;;;;;;;;;3.90;99.90;;;;;;5059146;28;1343;-74
2023/01/22 10:27:16;;;;;;;;;;;3.80;99.90;;;;;;5066354;28;1673;-75
2023/01/22 10:29:44;;;;;;;;;;;3.70;99.90;;;;;;5070822;28;1957;-74
2023/01/22 10:32:16;;;;;;;;;;;3.80;99.90;;;;;;5066821;28;1690;-75
2023/01/22 10:34:56;;;;;;;;;;;3.70;99.90;;;;;;5066179;28;1370;-75
2023/01/22 10:37:24;;;;;;;;;;;3.70;99.90;;;;;;5063051;28;1993;-75
2023/01/22 10:39:55;;;;;;;;;;;3.90;99.90;;;;;;5065164;28;1730;-75
2023/01/22 10:42:24;;;;;;;;;;;3.90;99.90;;;;;;5068886;28;1304;-74
2023/01/22 10:44:54;;;;;;;;;;;4.00;99.90;;;;;;5062656;28;1433;-74
2023/01/22 10:47:25;;;;;;;;;;;3.90;99.90;;;;;;5066144;28;1510;-75
2023/01/22 10:50:06;;;;;;;;;;;3.80;99.90;;;;;;5067252;28;1009;-75
2023/01/22 10:52:36;;;;;;;;;;;4.00;99.90;;;;;;5062952;28;1033;-75
2023/01/22 10:55:04;;;;;;;;;;;4.00;99.90;;;;;;5067283;28;1410;-75
2023/01/22 10:57:39;;;;;;;;;;;3.90;99.90;;;;;;5063630;28;1987;-75
2023/01/22 11:00:21;;;;;;;;;;;4.00;99.90;;;;;;5065585;28;1005;-74
2023/01/22 11:02:49;;;;;;;;;;;4.00;99.90;;;;;;5066011;28;1029;-75
2023/01/22 11:05:20;;;;;;;;;;;3.90;99.90;;;;;;5066915;28;1896;-76
2023/01/22 11:07:50;;;;;;;;;;;4.00;99.90;;;;;;5064621;28;1419;-75
2023/01/22 11:10:19;;;;;;;;;;;4.00;99.90;;;;;;5059826;28;1064;-75
2023/01/22 11:12:50;;;;;;;;;;;4.10;99.90;;;;;;5067935;28;1246;-75
2023/01/22 11:15:20;;;;;;;;;;;4.00;99.90;;;;;;5068515;28;1324;-76
2023/01/22 11:17:49;;;;;;;;;;;4.00;99.90;;;;;;5062707;28;1906;-76
2023/01/22 11:20:23;;;;;;;;;;;4.10;99.90;;;;;;5070524;28;1084;-75
2023/01/22 11:22:59;;;;;;;;;;;4.00;99.90;;;;;;5065817;28;1335;-75
2023/01/22 11:25:37;;;;;;;;;;;4.10;99.90;;;;;;5066658;28;1430;-75
2023/01/22 11:28:11;;;;;;;;;;;4.10;99.90;;;;;;5062906;28;1102;-75
2023/01/22 11:31:12;;;;;;;;;;;4.20;99.90;;;;;;5061617;28;1009;-74
2023/01/22 11:33:52;;;;;;;;;;;4.20;99.90;;;;;;5025475;28;1006;-76
2023/01/22 11:36:23;;;;;;;;;;;4.30;99.90;;;;;;5024550;28;1995;-77
2023/01/22 11:38:53;;;;;;;;;;;4.10;99.90;;;;;;5038026;28;1811;-75
2023/01/22 11:41:36;;;;;;;;;;;4.30;99.90;;;;;;5066387;28;1033;-74
2023/01/22 11:44:17;;;;;;;;;;;4.30;99.90;;;;;;5061633;28;1092;-74
2023/01/22 11:46:54;;;;;;;;;;;4.20;99.90;;;;;;5066009;28;1017;-74
2023/01/22 11:49:29;;;;;;;;;;;4.30;99.90;;;;;;5066550;28;977;-75
2023/01/22 11:52:03;;;;;;;;;;;4.40;99.90;;;;;;5061833;28;1427;-75
2023/01/22 11:54:38;;;;;;;;;;;4.40;99.90;;;;;;5064987;28;1681;-75
2023/01/22 11:57:09;;;;;;;;;;;4.40;99.90;;;;;;5063182;28;1971;-77
2023/01/22 11:59:49;;;;;;;;;;;4.40;99.90;;;;;;5063752;28;1049;-76
2023/01/22 12:02:22;;;;;;;;;;;4.40;99.90;;;;;;5064668;28;1071;-75
2023/01/22 12:05:15;;;;;;;;;;;4.40;99.90;;;;;;5062709;28;1366;-75
2023/01/22 12:08:01;;;;;;;;;;;4.40;99.90;;;;;;5052093;28;1824;-75
2023/01/22 12:10:41;;;;;;;;;;;4.40;99.90;;;;;;5059673;28;1242;-74
2023/01/22 12:13:19;;;;;;;;;;;4.60;99.90;;;;;;5061956;28;1714;-74
2023/01/22 12:15:48;;;;;;;;;;;4.60;99.90;;;;;;5058267;28;1467;-75
2023/01/22 12:18:34;;;;;;;;;;;4.60;99.90;;;;;;5057319;28;1890;-75
2023/01/22 12:21:06;;;;;;;;;;;4.60;99.90;;;;;;5060826;28;1073;-77
2023/01/22 12:23:35;;;;;;;;;;;4.60;99.90;;;;;;5063817;28;1457;-74
2023/01/22 12:26:08;;;;;;;;;;;4.70;99.90;;;;;;5064142;28;1276;-75
2023/01/22 12:28:58;;;;;;;;;;;4.70;99.90;;;;;;5064729;28;1258;-75
2023/01/22 12:31:31;;;;;;;;;;;4.70;99.90;;;;;;5064097;28;1083;-74
2023/01/22 12:34:03;;;;;;;;;;;4.70;99.90;;;;;;5060282;28;1638;-74
2023/01/22 12:36:52;;;;;;;;;;;4.60;99.90;;;;;;5065566;28;1315;-74
2023/01/22 12:39:46;;;;;;;;;;;4.50;99.90;;;;;;5058978;28;1690;-74
2023/01/22 12:42:32;;;;;;;;;;;4.50;99.90;;;;;;5059997;28;1564;-75
2023/01/22 12:45:07;;;;;;;;;;;4.70;99.90;;;;;;5061995;28;1279;-74
2023/01/22 12:47:57;;;;;;;;;;;4.60;99.90;;;;;;5061491;28;1567;-76
2023/01/22 12:50:50;;;;;;;;;;;4.80;99.90;;;;;;5060716;28;1254;-75
2023/01/22 12:53:24;;;;;;;;;;;4.60;99.90;;;;;;5063503;28;1269;-74
2023/01/22 12:56:01;;;;;;;;;;;4.70;99.90;;;;;;5066758;28;1276;-74
2023/01/22 12:58:31;;;;;;;;;;;4.60;99.90;;;;;;5070383;28;1918;-74
2023/01/22 13:01:02;;;;;;;;;;;4.60;99.90;;;;;;5065225;28;1063;-74
2023/01/22 13:03:33;;;;;;;;;;;4.70;99.90;;;;;;5063352;28;1221;-75
2023/01/22 13:06:03;;;;;;;;;;;4.80;99.90;;;;;;5065483;28;1655;-75
2023/01/22 13:08:40;;;;;;;;;;;4.70;99.90;;;;;;5063026;28;1424;-74
2023/01/22 13:11:08;;;;;;;;;;;4.80;99.90;;;;;;5065041;28;1100;-75
2023/01/22 13:13:41;;;;;;;;;;;4.70;99.90;;;;;;5065359;28;1201;-73
2023/01/22 13:16:31;;;;;;;;;;;4.70;99.90;;;;;;5063397;28;1489;-73
2023/01/22 13:19:00;;;;;;;;;;;4.60;99.90;;;;;;5062219;28;1910;-74
2023/01/22 13:21:29;;;;;;;;;;;4.70;99.90;;;;;;5069507;28;1099;-73
2023/01/22 13:23:57;;;;;;;;;;;4.80;99.90;;;;;;5067156;28;1205;-74
2023/01/22 13:26:28;;;;;;;;;;;4.80;99.90;;;;;;5062851;28;1621;-74
2023/01/22 13:28:59;;;;;;;;;;;4.90;99.90;;;;;;5066790;28;1528;-74
2023/01/22 13:31:27;;;;;;;;;;;4.90;99.90;;;;;;5064167;28;1176;-74
2023/01/22 13:33:56;;;;;;;;;;;4.90;99.90;;;;;;5066060;28;1113;-74
2023/01/22 13:36:24;;;;;;;;;;;5.00;99.90;;;;;;5067463;28;1427;-74
2023/01/22 13:38:52;;;;;;;;;;;5.00;99.90;;;;;;5068874;28;1962;-74
2023/01/22 13:41:25;;;;;;;;;;;5.00;99.90;;;;;;5081929;28;1182;-73
2023/01/22 13:43:53;;;;;;;;;;;4.90;99.90;;;;;;5081869;28;1040;-74
2023/01/22 13:46:22;;;;;;;;;;;5.10;99.90;;;;;;5078671;28;1187;-74
2023/01/22 13:48:59;;;;;;;;;;;5.10;99.90;;;;;;5083241;28;1068;-74
2023/01/22 13:51:27;;;;;;;;;;;5.30;99.90;;;;;;5077189;28;1326;-75
2023/01/22 13:53:55;;;;;;;;;;;5.20;99.90;;;;;;5084835;28;1128;-75
2023/01/22 13:56:25;;;;;;;;;;;5.20;99.90;;;;;;5082811;28;1362;-75
2023/01/22 13:58:55;;;;;;;;;;;5.10;99.90;;;;;;5078681;28;1906;-74
2023/01/22 14:01:29;;;;;;;;;;;5.10;99.90;;;;;;5083906;28;1598;-75
2023/01/22 14:04:02;;;;;;;;;;;5.10;99.90;;;;;;5079973;28;1677;-74
2023/01/22 14:06:42;;;;;;;;;;;5.10;99.90;;;;;;5065540;28;1374;-74
2023/01/22 14:09:11;;;;;;;;;;;5.20;99.90;;;;;;5059381;28;1087;-74
2023/01/22 14:11:39;;;;;;;;;;;5.10;99.90;;;;;;5062013;28;1560;-76
2023/01/22 14:14:16;;;;;;;;;;;5.10;99.90;;;;;;5065741;28;1077;-75
2023/01/22 14:16:45;;;;;;;;;;;5.10;99.90;;;;;;5064060;28;1395;-73
2023/01/22 14:19:13;;;;;;;;;;;5.20;99.90;;;;;;5061099;28;1970;-75
2023/01/22 14:21:43;;;;;;;;;;;5.20;99.90;;;;;;5061306;28;1225;-74
2023/01/22 14:24:11;;;;;;;;;;;5.10;99.90;;;;;;5063500;28;1082;-74
2023/01/22 14:26:39;;;;;;;;;;;5.10;99.90;;;;;;5067054;28;1304;-75
2023/01/22 14:29:07;;;;;;;;;;;5.10;99.90;;;;;;5069579;28;1682;-75
2023/01/22 14:31:37;;;;;;;;;;;5.00;99.90;;;;;;5064004;28;982;-74
2023/01/22 14:34:06;;;;;;;;;;;5.00;99.90;;;;;;5063806;28;1719;-76
2023/01/22 14:36:33;;;;;;;;;;;5.00;99.90;;;;;;5062448;28;1289;-74
2023/01/22 14:39:01;;;;;;;;;;;5.10;99.90;;;;;;5062904;28;2007;-75
2023/01/22 14:41:29;;;;;;;;;;;5.10;99.90;;;;;;5063583;28;1811;-77
2023/01/22 14:43:56;;;;;;;;;;;5.20;99.90;;;;;;5068301;28;1198;-73
2023/01/22 14:46:24;;;;;;;;;;;5.10;99.90;;;;;;5063083;28;1471;-74
2023/01/22 14:48:52;;;;;;;;;;;5.10;99.90;;;;;;5068338;28;1025;-74
2023/01/22 14:51:21;;;;;;;;;;;5.20;99.90;;;;;;5065210;28;1005;-74
2023/01/22 14:53:50;;;;;;;;;;;5.00;99.90;;;;;;5067472;28;1077;-74
2023/01/22 14:56:17;;;;;;;;;;;5.00;99.90;;;;;;5063866;28;1345;-74
2023/01/22 14:58:48;;;;;;;;;;;5.20;99.90;;;;;;5069299;28;1993;-74
2023/01/22 15:01:16;;;;;;;;;;;5.00;99.90;;;;;;5066745;28;997;-74
2023/01/22 15:03:44;;;;;;;;;;;5.00;99.90;;;;;;5069364;28;981;-75
2023/01/22 15:06:11;;;;;;;;;;;4.90;99.90;;;;;;5066492;28;1721;-74
2023/01/22 15:08:41;;;;;;;;;;;4.90;99.90;;;;;;5063092;28;1653;-74